Time,TemperatureF,DewpointF,PressureIn,WindDirection,WindDirectionDegrees,WindSpeedMPH,WindSpeedGustMPH,Humidity,HourlyPrecipIn,Conditions,Clouds,dailyrainin,SolarRadiationWatts/m^2,SoftwareType,DateUTC
2013-06-07 00:02:00,69.0,19.0,-100.00,North,354,1.0,7.0,15,0.00,,,0.00,0.000000,,2013-06-07 07:02:00,
2013-06-07 00:12:00,69.0,19.0,-100.00,North,354,1.0,7.0,15,0.00,,,0.00,0.000000,,2013-06-07 07:12:00,
2013-06-07 00:22:00,69.0,19.0,-100.00,North,354,1.0,7.0,15,0.00,,,0.00,0.000000,,2013-06-07 07:22:00,
2013-06-07 00:32:00,69.0,19.0,-100.00,North,354,1.0,7.0,15,0.00,,,0.00,0.000000,,2013-06-07 07:32:00,
2013-06-07 01:02:00,67.0,21.0,-100.00,East,91,1.0,8.0,17,0.00,,,0.00,0.000000,,2013-06-07 08:02:00,
2013-06-07 01:12:00,67.0,21.0,-100.00,East,91,1.0,8.0,17,0.00,,,0.00,0.000000,,2013-06-07 08:12:00,
2013-06-07 01:22:00,67.0,21.0,-100.00,East,91,1.0,8.0,17,0.00,,,0.00,0.000000,,2013-06-07 08:22:00,
2013-06-07 01:32:00,67.0,21.0,-100.00,East,91,1.0,8.0,17,0.00,,,0.00,0.000000,,2013-06-07 08:32:00,
2013-06-07 01:52:00,67.0,21.0,-100.00,NW,326,3.0,6.0,17,0.00,,,0.00,0.000000,,2013-06-07 08:52:00,
2013-06-07 02:02:00,67.0,21.0,-100.00,NW,326,3.0,6.0,17,0.00,,,0.00,0.000000,,2013-06-07 09:02:00,
2013-06-07 02:12:00,67.0,21.0,-100.00,NW,326,3.0,6.0,17,0.00,,,0.00,0.000000,,2013-06-07 09:12:00,
2013-06-07 02:22:00,67.0,21.0,-100.00,NW,326,3.0,6.0,17,0.00,,,0.00,0.000000,,2013-06-07 09:22:00,
2013-06-07 02:32:00,67.0,21.0,-100.00,NW,326,3.0,6.0,17,0.00,,,0.00,0.000000,,2013-06-07 09:32:00,
2013-06-07 02:53:00,67.0,19.0,-100.00,NNW,347,4.0,9.0,16,0.00,,,0.00,0.000000,,2013-06-07 09:53:00,
2013-06-07 03:02:00,67.0,19.0,-100.00,NNW,347,4.0,9.0,16,0.00,,,0.00,0.000000,,2013-06-07 10:02:00,
2013-06-07 03:12:00,67.0,19.0,-100.00,NNW,347,4.0,9.0,16,0.00,,,0.00,0.000000,,2013-06-07 10:12:00,
2013-06-07 03:22:00,67.0,19.0,-100.00,NNW,347,4.0,9.0,16,0.00,,,0.00,0.000000,,2013-06-07 10:22:00,
2013-06-07 03:32:00,67.0,19.0,-100.00,NNW,347,4.0,9.0,16,0.00,,,0.00,0.000000,,2013-06-07 10:32:00,
2013-06-07 03:53:00,67.0,21.0,-100.00,North,6,8.0,12.0,17,0.00,,,-99.99,0.000000,,2013-06-07 10:53:00,
2013-06-07 04:02:00,67.0,21.0,-100.00,North,6,8.0,12.0,17,0.00,,,-99.99,0.000000,,2013-06-07 11:02:00,
2013-06-07 04:12:00,67.0,21.0,-100.00,North,6,8.0,12.0,17,0.00,,,-99.99,0.000000,,2013-06-07 11:12:00,
2013-06-07 04:22:00,67.0,21.0,-100.00,North,6,8.0,12.0,17,0.00,,,-99.99,0.000000,,2013-06-07 11:22:00,
2013-06-07 04:32:00,67.0,21.0,-100.00,North,6,8.0,12.0,17,0.00,,,-99.99,0.000000,,2013-06-07 11:32:00,
2013-06-07 04:52:00,67.0,22.0,-100.00,North,7,10.0,14.0,18,0.00,,,0.00,0.000000,,2013-06-07 11:52:00,
2013-06-07 05:02:00,67.0,22.0,-100.00,North,7,10.0,14.0,18,0.00,,,0.00,0.000000,,2013-06-07 12:02:00,
2013-06-07 05:12:00,67.0,22.0,-100.00,North,7,10.0,14.0,18,0.00,,,0.00,0.000000,,2013-06-07 12:12:00,
2013-06-07 05:22:00,67.0,22.0,-100.00,North,7,10.0,14.0,18,0.00,,,0.00,0.000000,,2013-06-07 12:22:00,
2013-06-07 05:32:00,67.0,22.0,-100.00,North,7,10.0,14.0,18,0.00,,,0.00,0.000000,,2013-06-07 12:32:00,
2013-06-07 05:52:00,67.0,22.0,-100.00,North,358,8.0,14.0,18,0.00,,,0.00,5.000000,,2013-06-07 12:52:00,
2013-06-07 06:02:00,67.0,22.0,-100.00,North,358,8.0,14.0,18,0.00,,,0.00,5.000000,,2013-06-07 13:02:00,
2013-06-07 06:12:00,67.0,22.0,-100.00,North,358,8.0,14.0,18,0.00,,,0.00,5.000000,,2013-06-07 13:12:00,
2013-06-07 06:22:00,67.0,22.0,-100.00,North,358,8.0,14.0,18,0.00,,,0.00,5.000000,,2013-06-07 13:22:00,
2013-06-07 06:32:00,67.0,22.0,-100.00,North,358,8.0,14.0,18,0.00,,,0.00,5.000000,,2013-06-07 13:32:00,
2013-06-07 06:52:00,71.0,24.0,-100.00,North,356,7.0,12.0,17,0.00,,,0.00,144.000000,,2013-06-07 13:52:00,
2013-06-07 07:02:00,71.0,24.0,-100.00,North,356,7.0,12.0,17,0.00,,,0.00,144.000000,,2013-06-07 14:02:00,
2013-06-07 07:12:00,71.0,24.0,-100.00,North,356,7.0,12.0,17,0.00,,,0.00,144.000000,,2013-06-07 14:12:00,
2013-06-07 07:22:00,71.0,24.0,-100.00,North,356,7.0,12.0,17,0.00,,,0.00,144.000000,,2013-06-07 14:22:00,
2013-06-07 07:32:00,71.0,24.0,-100.00,North,356,7.0,12.0,17,0.00,,,0.00,144.000000,,2013-06-07 14:32:00,
2013-06-07 07:52:00,76.0,25.0,-100.00,NNE,15,6.0,13.0,15,0.00,,,0.00,386.000000,,2013-06-07 14:52:00,
2013-06-07 08:02:00,76.0,25.0,-100.00,NNE,15,6.0,13.0,15,0.00,,,0.00,386.000000,,2013-06-07 15:02:00,
2013-06-07 08:12:00,76.0,25.0,-100.00,NNE,15,6.0,13.0,15,0.00,,,0.00,386.000000,,2013-06-07 15:12:00,
2013-06-07 08:22:00,76.0,25.0,-100.00,NNE,15,6.0,13.0,15,0.00,,,0.00,386.000000,,2013-06-07 15:22:00,
2013-06-07 08:33:00,76.0,25.0,-100.00,NNE,15,6.0,13.0,15,0.00,,,0.00,386.000000,,2013-06-07 15:33:00,
2013-06-07 08:53:00,79.0,26.0,-100.00,NNE,28,6.0,14.0,14,0.00,,,-99.99,663.000000,,2013-06-07 15:53:00,
2013-06-07 09:03:00,79.0,26.0,-100.00,NNE,28,6.0,14.0,14,0.00,,,-99.99,663.000000,,2013-06-07 16:03:00,
2013-06-07 09:12:00,79.0,26.0,-100.00,NNE,28,6.0,14.0,14,0.00,,,-99.99,663.000000,,2013-06-07 16:12:00,
2013-06-07 09:22:00,79.0,26.0,-100.00,NNE,28,6.0,14.0,14,0.00,,,-99.99,663.000000,,2013-06-07 16:22:00,
2013-06-07 09:32:00,79.0,26.0,-100.00,NNE,28,6.0,14.0,14,0.00,,,-99.99,663.000000,,2013-06-07 16:32:00,
2013-06-07 09:53:00,82.0,31.0,-100.00,SE,146,3.0,10.0,16,0.00,,,0.00,898.000000,,2013-06-07 16:53:00,
2013-06-07 10:02:00,82.0,31.0,-100.00,SE,146,3.0,10.0,16,0.00,,,0.00,898.000000,,2013-06-07 17:02:00,
2013-06-07 10:12:00,82.0,31.0,-100.00,SE,146,3.0,10.0,16,0.00,,,0.00,898.000000,,2013-06-07 17:12:00,
2013-06-07 10:22:00,82.0,31.0,-100.00,SE,146,3.0,10.0,16,0.00,,,0.00,898.000000,,2013-06-07 17:22:00,
2013-06-07 10:32:00,82.0,31.0,-100.00,SE,146,3.0,10.0,16,0.00,,,0.00,898.000000,,2013-06-07 17:32:00,
2013-06-07 10:52:00,80.0,28.0,-100.00,SE,142,7.0,11.0,15,0.00,,,0.00,1085.000000,,2013-06-07 17:52:00,
2013-06-07 11:05:00,80.0,28.0,-100.00,SE,142,7.0,11.0,15,0.00,,,0.00,1085.000000,,2013-06-07 18:05:00,
2013-06-07 11:15:00,80.0,28.0,-100.00,SE,142,7.0,11.0,15,0.00,,,0.00,1085.000000,,2013-06-07 18:15:00,
2013-06-07 11:23:00,80.0,28.0,-100.00,SE,142,7.0,11.0,15,0.00,,,0.00,1085.000000,,2013-06-07 18:23:00,
2013-06-07 11:34:00,80.0,28.0,-100.00,SE,142,7.0,11.0,15,0.00,,,0.00,1085.000000,,2013-06-07 18:34:00,
2013-06-07 11:58:00,83.0,29.0,-100.00,South,177,5.0,12.0,14,0.00,,,0.00,1210.000000,,2013-06-07 18:58:00,
2013-06-07 12:05:00,83.0,29.0,-100.00,South,177,5.0,12.0,14,0.00,,,0.00,1210.000000,,2013-06-07 19:05:00,
2013-06-07 12:14:00,83.0,29.0,-100.00,South,177,5.0,12.0,14,0.00,,,0.00,1210.000000,,2013-06-07 19:14:00,
2013-06-07 12:25:00,83.0,29.0,-100.00,South,177,5.0,12.0,14,0.00,,,0.00,1210.000000,,2013-06-07 19:25:00,
2013-06-07 12:57:00,85.0,25.0,-100.00,SW,221,5.0,11.0,11,0.00,,,0.00,1139.000000,,2013-06-07 19:57:00,
2013-06-07 13:05:00,85.0,25.0,-100.00,SW,221,5.0,11.0,11,0.00,,,0.00,1139.000000,,2013-06-07 20:05:00,
2013-06-07 13:13:00,85.0,25.0,-100.00,SW,221,5.0,11.0,11,0.00,,,0.00,1139.000000,,2013-06-07 20:13:00,
2013-06-07 13:23:00,85.0,25.0,-100.00,SW,221,5.0,11.0,11,0.00,,,0.00,1139.000000,,2013-06-07 20:23:00,
2013-06-07 13:35:00,85.0,25.0,-100.00,SW,221,5.0,11.0,11,0.00,,,0.00,1139.000000,,2013-06-07 20:35:00,
2013-06-07 13:58:00,82.0,28.0,-100.00,SW,231,5.0,13.0,14,0.00,,,0.00,871.000000,,2013-06-07 20:58:00,
2013-06-07 14:04:00,82.0,28.0,-100.00,SW,231,5.0,13.0,14,0.00,,,0.00,871.000000,,2013-06-07 21:04:00,
2013-06-07 14:15:00,82.0,28.0,-100.00,SW,231,5.0,13.0,14,0.00,,,0.00,871.000000,,2013-06-07 21:15:00,
2013-06-07 14:25:00,82.0,28.0,-100.00,SW,231,5.0,13.0,14,0.00,,,0.00,871.000000,,2013-06-07 21:25:00,
2013-06-07 14:35:00,82.0,28.0,-100.00,SW,231,5.0,13.0,14,0.00,,,0.00,871.000000,,2013-06-07 21:35:00,
2013-06-07 15:00:00,88.0,25.0,-100.00,WSW,248,4.0,14.0,10,0.00,,,0.00,706.000000,,2013-06-07 22:00:00,
2013-06-07 15:07:00,88.0,25.0,-100.00,WSW,248,4.0,14.0,10,0.00,,,0.00,706.000000,,2013-06-07 22:07:00,
2013-06-07 15:17:00,88.0,25.0,-100.00,WSW,248,4.0,14.0,10,0.00,,,0.00,706.000000,,2013-06-07 22:17:00,
2013-06-07 15:24:00,88.0,25.0,-100.00,WSW,248,4.0,14.0,10,0.00,,,0.00,706.000000,,2013-06-07 22:24:00,
2013-06-07 15:33:00,88.0,25.0,-100.00,WSW,248,4.0,14.0,10,0.00,,,0.00,706.000000,,2013-06-07 22:33:00,
2013-06-07 15:59:00,88.0,29.0,-100.00,SW,229,6.0,21.0,12,0.00,,,0.00,1056.000000,,2013-06-07 22:59:00,
2013-06-07 16:05:00,88.0,29.0,-100.00,SW,229,6.0,21.0,12,0.00,,,0.00,1056.000000,,2013-06-07 23:05:00,
2013-06-07 16:17:00,88.0,29.0,-100.00,SW,229,6.0,21.0,12,0.00,,,0.00,1056.000000,,2013-06-07 23:17:00,
2013-06-07 16:33:00,88.0,29.0,-100.00,SW,229,6.0,21.0,12,0.00,,,0.00,1056.000000,,2013-06-07 23:33:00,
2013-06-07 17:08:00,88.0,27.0,-100.00,WSW,239,7.0,17.0,11,0.00,,,-99.99,871.000000,,2013-06-08 00:08:00,
2013-06-07 17:14:00,88.0,27.0,-100.00,WSW,239,7.0,17.0,11,0.00,,,-99.99,871.000000,,2013-06-08 00:14:00,
2013-06-07 17:25:00,88.0,27.0,-100.00,WSW,239,7.0,17.0,11,0.00,,,-99.99,871.000000,,2013-06-08 00:25:00,
2013-06-07 17:33:00,88.0,27.0,-100.00,WSW,239,7.0,17.0,11,0.00,,,-99.99,871.000000,,2013-06-08 00:33:00,
2013-06-07 18:05:00,83.0,25.0,-100.00,WSW,244,8.0,16.0,12,0.00,,,0.00,548.000000,,2013-06-08 01:05:00,
2013-06-07 18:16:00,83.0,25.0,-100.00,WSW,244,8.0,16.0,12,0.00,,,0.00,548.000000,,2013-06-08 01:16:00,
2013-06-07 18:25:00,83.0,25.0,-100.00,WSW,244,8.0,16.0,12,0.00,,,0.00,548.000000,,2013-06-08 01:25:00,
2013-06-07 18:59:00,77.0,24.0,-100.00,West,266,8.0,17.0,14,0.00,,,0.00,183.000000,,2013-06-08 01:59:00,
2013-06-07 19:13:00,77.0,24.0,-100.00,West,266,8.0,17.0,14,0.00,,,0.00,183.000000,,2013-06-08 02:13:00,
2013-06-07 19:25:00,77.0,24.0,-100.00,West,266,8.0,17.0,14,0.00,,,0.00,183.000000,,2013-06-08 02:25:00,
2013-06-07 19:33:00,77.0,24.0,-100.00,West,266,8.0,17.0,14,0.00,,,0.00,183.000000,,2013-06-08 02:33:00,
2013-06-07 19:59:00,72.0,22.0,-100.00,WNW,283,10.0,19.0,15,0.00,,,0.00,28.000000,,2013-06-08 02:59:00,
2013-06-07 20:08:00,72.0,22.0,-100.00,WNW,283,10.0,19.0,15,0.00,,,0.00,28.000000,,2013-06-08 03:08:00,
2013-06-07 20:15:00,72.0,22.0,-100.00,WNW,283,10.0,19.0,15,0.00,,,0.00,28.000000,,2013-06-08 03:15:00,
2013-06-07 20:25:00,72.0,22.0,-100.00,WNW,283,10.0,19.0,15,0.00,,,0.00,28.000000,,2013-06-08 03:25:00,
2013-06-07 20:33:00,72.0,22.0,-100.00,WNW,283,10.0,19.0,15,0.00,,,0.00,28.000000,,2013-06-08 03:33:00,
2013-06-07 21:00:00,71.0,23.0,-100.00,NW,322,7.0,16.0,16,0.00,,,-99.99,0.000000,,2013-06-08 04:00:00,
2013-06-07 21:03:00,71.0,23.0,-100.00,NW,322,7.0,16.0,16,0.00,,,-99.99,0.000000,,2013-06-08 04:03:00,
2013-06-07 21:12:00,71.0,23.0,-100.00,NW,322,7.0,16.0,16,0.00,,,-99.99,0.000000,,2013-06-08 04:12:00,
2013-06-07 21:22:00,71.0,23.0,-100.00,NW,322,7.0,16.0,16,0.00,,,-99.99,0.000000,,2013-06-08 04:22:00,
2013-06-07 21:33:00,71.0,23.0,-100.00,NW,322,7.0,16.0,16,0.00,,,-99.99,0.000000,,2013-06-08 04:33:00,
2013-06-07 22:02:00,71.0,18.0,-100.00,NW,315,5.0,13.0,13,0.00,,,0.00,0.000000,,2013-06-08 05:02:00,
2013-06-07 22:12:00,71.0,18.0,-100.00,NW,315,5.0,13.0,13,0.00,,,0.00,0.000000,,2013-06-08 05:12:00,
2013-06-07 22:22:00,71.0,18.0,-100.00,NW,315,5.0,13.0,13,0.00,,,0.00,0.000000,,2013-06-08 05:22:00,
2013-06-07 22:32:00,71.0,18.0,-100.00,NW,315,5.0,13.0,13,0.00,,,0.00,0.000000,,2013-06-08 05:32:00,
2013-06-07 22:52:00,70.0,19.0,-100.00,NNW,330,5.0,9.0,14,0.00,,,0.00,0.000000,,2013-06-08 05:52:00,
2013-06-07 23:02:00,70.0,19.0,-100.00,NNW,330,5.0,9.0,14,0.00,,,0.00,0.000000,,2013-06-08 06:02:00,
2013-06-07 23:12:00,70.0,19.0,-100.00,NNW,330,5.0,9.0,14,0.00,,,0.00,0.000000,,2013-06-08 06:12:00,
2013-06-07 23:22:00,70.0,19.0,-100.00,NNW,330,5.0,9.0,14,0.00,,,0.00,0.000000,,2013-06-08 06:22:00,
2013-06-07 23:32:00,70.0,19.0,-100.00,NNW,330,5.0,9.0,14,0.00,,,0.00,0.000000,,2013-06-08 06:32:00,
2013-06-07 23:52:00,70.0,20.0,-100.00,WNW,295,9.0,17.0,15,0.00,,,0.00,0.000000,,2013-06-08 06:52:00,